Terminal Aerodrome Forecast
Issued by NWS Newport/Morehead City, NC

Home | Current Version | Previous Version | Text Only | Print | Product List | Glossary Off
Versions: 1 2 3 4 5 6 7 8 9 10 11 12 13 14 15 16 17 18 19

000
FTUS42 KMHX 010100 AAA
TAFEWN
TAF AMD
KEWN 010155Z 0102/0124 00000KT 3SM BR SCT005
      TEMPO 0102/0103 1/2SM FG
     FM011300 03005KT P6SM SCT025
     FM011800 03005KT P6SM SCT250=

USA.gov is the U.S. government's official web portal to all federal, state and local government web resources and services.